Time;durP1;ratioP1;P1;durP2;ratioP2;P2;SDS_P1;SDS_P2;PMS_P1;PMS_P2;Temp;Humidity;BMP_temperature;BMP_pressure;BME280_temperature;BME280_humidity;BME280_pressure;Samples;Min_cycle;Max_cycle;Signal;HPM_P1;HPM_P2
2023/05/22 00:01:38;;;;;;;3.83;3.42;;;16.90;41.90;;;;;;4988305;28;20425;-78
2023/05/22 00:04:07;;;;;;;3.50;3.20;;;16.90;41.90;;;;;;5000434;28;20557;-79
2023/05/22 00:06:36;;;;;;;3.55;3.25;;;16.80;41.80;;;;;;4989490;28;20034;-79
2023/05/22 00:09:03;;;;;;;3.90;3.50;;;16.80;41.90;;;;;;4998782;28;20040;-80
2023/05/22 00:11:29;;;;;;;4.25;3.63;;;16.80;42.00;;;;;;4999694;28;20038;-80
2023/05/22 00:13:55;;;;;;;4.20;3.35;;;16.70;41.90;;;;;;4993389;28;20041;-79
2023/05/22 00:16:21;;;;;;;4.18;3.42;;;16.70;42.00;;;;;;4995596;28;20635;-79
2023/05/22 00:18:48;;;;;;;5.20;4.03;;;16.70;42.10;;;;;;5000361;28;20390;-80
2023/05/22 00:21:15;;;;;;;3.75;2.88;;;16.70;42.20;;;;;;4992477;28;20038;-80
2023/05/22 00:23:42;;;;;;;3.17;2.88;;;16.60;42.10;;;;;;4997496;28;20414;-80
2023/05/22 00:26:15;;;;;;;3.38;3.08;;;16.60;42.10;;;;;;5000817;28;20497;-79
2023/05/22 00:28:42;;;;;;;4.30;3.55;;;16.60;42.30;;;;;;4998571;28;20557;-81
2023/05/22 00:31:08;;;;;;;3.80;3.20;;;16.50;42.20;;;;;;4994038;28;20037;-80
2023/05/22 00:33:34;;;;;;;4.18;3.70;;;16.50;42.30;;;;;;4999671;28;20030;-80
2023/05/22 00:36:00;;;;;;;4.38;3.63;;;16.50;42.30;;;;;;4999255;28;20392;-80
2023/05/22 00:38:32;;;;;;;3.67;3.30;;;16.50;42.40;;;;;;4998072;28;20030;-81
2023/05/22 00:41:00;;;;;;;4.70;3.67;;;16.40;42.30;;;;;;4999979;28;20315;-81
2023/05/22 00:43:26;;;;;;;4.05;3.50;;;16.40;42.40;;;;;;4998522;28;20057;-81
2023/05/22 00:45:53;;;;;;;5.55;3.63;;;16.40;42.40;;;;;;4999038;28;20607;-80
2023/05/22 00:48:23;;;;;;;4.35;3.20;;;16.40;42.60;;;;;;4999182;28;20301;-81
2023/05/22 00:50:50;;;;;;;4.15;3.75;;;16.30;42.50;;;;;;4997276;28;20519;-81
2023/05/22 00:53:19;;;;;;;6.65;3.80;;;16.30;42.50;;;;;;4999494;28;20414;-81
2023/05/22 00:55:48;;;;;;;4.60;3.63;;;16.30;42.70;;;;;;4988562;28;20505;-80
2023/05/22 00:58:16;;;;;;;6.38;4.32;;;16.30;42.80;;;;;;4997598;28;20210;-80
2023/05/22 01:00:43;;;;;;;5.07;4.43;;;16.20;42.70;;;;;;4995490;28;20026;-80
2023/05/22 01:03:09;;;;;;;4.93;4.40;;;16.20;42.80;;;;;;4999215;28;20091;-82
2023/05/22 01:05:37;;;;;;;3.92;3.53;;;16.10;42.70;;;;;;4991735;28;20037;-82
2023/05/22 01:08:08;;;;;;;4.47;4.07;;;16.10;42.80;;;;;;5010176;28;20041;-82
2023/05/22 01:10:36;;;;;;;5.35;4.13;;;16.00;42.80;;;;;;4999275;28;20033;-82
2023/05/22 01:13:17;;;;;;;4.55;4.00;;;16.00;42.90;;;;;;4990936;28;20065;-81
2023/05/22 01:16:11;;;;;;;4.80;4.40;;;16.00;43.10;;;;;;5000384;28;20095;-80
2023/05/22 01:18:46;;;;;;;4.43;3.83;;;15.90;43.00;;;;;;4988487;28;20468;-81
2023/05/22 01:21:37;;;;;;;8.55;4.85;;;15.90;43.00;;;;;;4998513;28;20054;-80
2023/05/22 01:24:25;;;;;;;6.40;4.20;;;15.90;43.20;;;;;;5007274;28;20481;-81
2023/05/22 01:27:00;;;;;;;4.30;3.90;;;15.80;43.00;;;;;;5000346;28;20049;-81
2023/05/22 01:29:47;;;;;;;7.07;5.00;;;15.80;43.00;;;;;;4992954;28;20137;-80
2023/05/22 01:32:20;;;;;;;6.22;4.20;;;15.80;43.30;;;;;;4997185;28;20041;-80
2023/05/22 01:34:52;;;;;;;4.85;4.35;;;15.70;43.10;;;;;;5005060;28;20041;-80
2023/05/22 01:37:21;;;;;;;6.18;4.38;;;15.80;43.40;;;;;;5004455;28;20045;-80
2023/05/22 01:39:50;;;;;;;4.43;3.70;;;15.80;43.40;;;;;;5006241;28;20132;-79
2023/05/22 01:42:17;;;;;;;5.70;4.57;;;15.70;43.30;;;;;;5001806;28;20042;-79
2023/05/22 01:44:44;;;;;;;5.32;4.70;;;15.70;43.40;;;;;;5004956;28;20049;-80
2023/05/22 01:47:10;;;;;;;5.80;4.50;;;15.70;43.50;;;;;;5007884;28;20049;-81
2023/05/22 01:49:37;;;;;;;6.93;4.50;;;15.60;43.40;;;;;;5006956;28;20110;-82
2023/05/22 01:52:28;;;;;;;5.68;3.95;;;15.60;43.50;;;;;;5005559;28;20034;-82
2023/05/22 01:55:05;;;;;;;5.40;4.03;;;15.60;43.70;;;;;;5003838;28;20046;-82
2023/05/22 01:57:37;;;;;;;5.20;4.35;;;15.60;43.60;;;;;;5001117;28;20040;-82
2023/05/22 02:00:09;;;;;;;5.57;3.63;;;15.60;43.70;;;;;;5007314;28;20061;-82
2023/05/22 02:02:50;;;;;;;4.25;3.80;;;15.50;43.60;;;;;;5000001;28;20319;-79
2023/05/22 02:05:17;;;;;;;5.47;4.15;;;15.40;43.50;;;;;;5001896;28;20030;-82
2023/05/22 02:07:46;;;;;;;4.60;3.75;;;15.40;43.50;;;;;;4999995;28;20041;-80
2023/05/22 02:10:14;;;;;;;4.90;4.40;;;15.40;43.60;;;;;;5006381;28;20038;-81
2023/05/22 02:12:41;;;;;;;4.28;3.70;;;15.40;43.70;;;;;;5005354;28;20034;-80
2023/05/22 02:15:08;;;;;;;5.15;4.30;;;15.30;43.60;;;;;;5007035;28;20029;-80
2023/05/22 02:17:43;;;;;;;5.70;3.47;;;15.30;43.80;;;;;;5007766;28;20076;-80
2023/05/22 02:20:14;;;;;;;4.38;3.85;;;15.20;43.80;;;;;;5004928;28;20050;-79
2023/05/22 02:22:44;;;;;;;;;;;15.20;43.80;;;;;;5000117;28;20042;-81
2023/05/22 02:25:15;;;;;;;4.72;3.63;;;15.20;43.70;;;;;;5007657;28;19950;-80
2023/05/22 02:27:44;;;;;;;3.85;3.42;;;15.10;43.50;;;;;;5004938;28;20547;-80
2023/05/22 02:30:14;;;;;;;4.18;3.88;;;15.10;43.60;;;;;;5008573;28;20493;-80
2023/05/22 02:32:41;;;;;;;4.75;4.22;;;15.00;43.60;;;;;;4998207;28;20041;-81
2023/05/22 02:35:08;;;;;;;7.13;4.03;;;15.00;43.70;;;;;;5002702;28;20038;-82
2023/05/22 02:37:35;;;;;;;4.47;4.07;;;15.00;43.80;;;;;;5003581;28;20054;-82
2023/05/22 02:40:04;;;;;;;4.90;3.50;;;15.00;43.80;;;;;;5000160;28;20036;-82
2023/05/22 02:42:31;;;;;;;4.60;3.80;;;14.90;43.70;;;;;;5019105;28;20054;-82
2023/05/22 02:45:01;;;;;;;4.93;3.70;;;14.90;43.80;;;;;;5006411;28;20038;-81
2023/05/22 02:47:30;;;;;;;4.07;3.67;;;14.90;44.00;;;;;;5006424;28;20219;-82
2023/05/22 02:49:57;;;;;;;4.65;3.72;;;14.80;43.80;;;;;;5006317;28;20167;-81
2023/05/22 02:52:23;;;;;;;4.18;3.78;;;14.80;43.90;;;;;;5004158;28;20049;-82
2023/05/22 02:54:50;;;;;;;5.45;4.15;;;14.70;43.80;;;;;;4999836;28;20168;-83
2023/05/22 02:57:17;;;;;;;3.92;3.47;;;14.70;43.90;;;;;;5001707;28;20135;-82
2023/05/22 02:59:43;;;;;;;4.13;3.42;;;14.70;44.00;;;;;;5005902;28;20033;-81
2023/05/22 03:02:11;;;;;;;5.03;3.97;;;14.70;44.10;;;;;;5004875;28;20069;-81
2023/05/22 03:04:37;;;;;;;5.40;3.70;;;14.70;44.20;;;;;;5006172;28;20044;-80
2023/05/22 03:07:06;;;;;;;6.22;3.20;;;14.60;44.10;;;;;;5006784;28;20040;-79
2023/05/22 03:09:32;;;;;;;4.20;3.80;;;14.60;44.20;;;;;;5007361;28;20169;-80
2023/05/22 03:11:59;;;;;;;6.20;3.80;;;14.50;44.00;;;;;;5006114;28;20537;-79
2023/05/22 03:14:27;;;;;;;4.88;3.67;;;14.50;44.10;;;;;;5001428;28;20108;-80
2023/05/22 03:16:54;;;;;;;4.05;3.72;;;14.50;44.20;;;;;;5006287;28;20176;-79
2023/05/22 03:19:21;;;;;;;3.88;3.10;;;14.40;44.00;;;;;;5005835;28;20473;-79
2023/05/22 03:21:48;;;;;;;3.88;3.47;;;14.40;44.10;;;;;;4977835;28;20049;-78
2023/05/22 03:24:15;;;;;;;7.07;4.03;;;14.40;44.10;;;;;;5001719;28;20041;-79
2023/05/22 03:26:42;;;;;;;4.60;3.50;;;14.40;44.20;;;;;;5000911;28;20027;-79
2023/05/22 03:29:14;;;;;;;4.18;3.75;;;14.40;44.30;;;;;;5001074;28;20053;-82
2023/05/22 03:31:45;;;;;;;4.07;3.55;;;14.40;44.30;;;;;;5006228;28;20034;-81
2023/05/22 03:34:16;;;;;;;3.50;3.15;;;14.30;44.10;;;;;;5005586;28;20247;-80
2023/05/22 03:36:45;;;;;;;4.03;3.45;;;14.30;44.20;;;;;;5004807;28;20401;-80
2023/05/22 03:39:14;;;;;;;5.30;3.58;;;14.30;44.30;;;;;;5003761;28;20042;-80
2023/05/22 03:41:48;;;;;;;4.18;3.70;;;14.30;44.30;;;;;;5023040;28;20103;-79
2023/05/22 03:44:15;;;;;;;4.43;3.70;;;14.30;44.30;;;;;;5005148;28;20048;-80
2023/05/22 03:46:42;;;;;;;5.38;4.25;;;14.30;44.40;;;;;;4990904;28;20057;-80
2023/05/22 03:49:08;;;;;;;4.88;3.88;;;14.20;44.20;;;;;;5005763;28;20068;-81
2023/05/22 03:51:36;;;;;;;4.47;3.95;;;14.20;44.30;;;;;;5006242;28;20042;-81
2023/05/22 03:54:03;;;;;;;5.57;3.78;;;14.20;45.00;;;;;;5005836;28;20065;-80
2023/05/22 03:56:29;;;;;;;4.47;3.70;;;14.20;44.40;;;;;;5001578;28;20042;-81
2023/05/22 03:59:15;;;;;;;4.32;3.72;;;14.20;44.40;;;;;;5009348;28;20034;-81
2023/05/22 04:01:41;;;;;;;4.75;3.80;;;14.20;44.40;;;;;;5002993;28;20080;-82
2023/05/22 04:04:11;;;;;;;3.97;3.50;;;14.10;44.30;;;;;;4984672;28;20031;-80
2023/05/22 04:06:41;;;;;;;4.53;4.00;;;14.10;44.40;;;;;;5000722;28;20045;-81
2023/05/22 04:09:11;;;;;;;4.70;4.15;;;14.10;44.50;;;;;;5000355;28;20045;-80
2023/05/22 04:11:38;;;;;;;6.68;3.65;;;14.10;44.70;;;;;;5001842;28;20041;-81
2023/05/22 04:14:05;;;;;;;5.75;4.65;;;14.10;44.70;;;;;;5005328;28;20057;-80
2023/05/22 04:16:32;;;;;;;4.88;4.00;;;14.10;44.80;;;;;;5006034;28;20033;-80
2023/05/22 04:19:00;;;;;;;5.30;4.72;;;14.10;44.90;;;;;;5004405;28;20389;-81
2023/05/22 04:21:27;;;;;;;5.30;4.43;;;14.10;45.00;;;;;;5001787;28;20038;-82
2023/05/22 04:23:53;;;;;;;4.75;4.35;;;14.10;45.00;;;;;;5006431;28;20034;-83
2023/05/22 04:26:19;;;;;;;6.82;5.03;;;14.10;45.10;;;;;;5005347;28;20091;-82
2023/05/22 04:28:48;;;;;;;5.75;4.28;;;14.10;45.20;;;;;;5003849;28;20041;-81
2023/05/22 04:31:14;;;;;;;5.32;4.82;;;14.10;45.20;;;;;;5003595;28;20033;-80
2023/05/22 04:33:40;;;;;;;5.47;4.75;;;14.10;45.20;;;;;;4988751;28;20496;-82
2023/05/22 04:36:08;;;;;;;7.25;5.38;;;14.20;45.50;;;;;;5005272;28;20042;-82
2023/05/22 04:38:36;;;;;;;7.15;5.13;;;14.20;45.40;;;;;;5005039;28;20045;-81
2023/05/22 04:41:07;;;;;;;6.65;4.95;;;14.20;45.50;;;;;;5005739;28;20049;-79
2023/05/22 04:43:38;;;;;;;12.35;6.10;;;14.20;45.40;;;;;;4982106;28;20022;-82
2023/05/22 04:46:07;;;;;;;6.00;4.97;;;14.30;45.60;;;;;;4999143;28;20060;-79
2023/05/22 04:48:34;;;;;;;6.72;5.25;;;14.30;45.60;;;;;;4999142;28;20600;-80
2023/05/22 04:51:05;;;;;;;5.13;4.63;;;14.30;45.60;;;;;;4995417;28;20050;-79
2023/05/22 04:53:32;;;;;;;5.63;4.82;;;14.30;45.60;;;;;;4994877;28;20033;-79
2023/05/22 04:55:59;;;;;;;5.70;4.75;;;14.40;45.70;;;;;;4994580;28;20034;-81
2023/05/22 04:58:28;;;;;;;6.10;5.40;;;14.50;46.00;;;;;;4999843;28;20042;-79
2023/05/22 05:00:56;;;;;;;6.68;5.35;;;14.50;45.90;;;;;;5009892;28;20044;-78
2023/05/22 05:03:24;;;;;;;6.50;5.10;;;14.50;45.80;;;;;;4998116;28;20528;-78
2023/05/22 05:05:51;;;;;;;6.13;5.53;;;14.60;46.00;;;;;;4996340;28;20096;-78
2023/05/22 05:08:17;;;;;;;6.57;5.57;;;14.60;46.00;;;;;;4980292;28;20058;-78
2023/05/22 05:10:43;;;;;;;5.85;5.20;;;14.70;46.10;;;;;;4998673;28;20073;-79
2023/05/22 05:13:10;;;;;;;6.30;4.72;;;14.70;46.00;;;;;;4996021;28;20038;-78
2023/05/22 05:15:38;;;;;;;5.47;4.97;;;14.80;46.20;;;;;;4999693;28;20034;-80
2023/05/22 05:18:06;;;;;;;5.35;4.82;;;14.80;46.10;;;;;;4999601;28;20120;-83
2023/05/22 05:20:35;;;;;;;6.88;5.90;;;14.90;46.20;;;;;;4995487;28;20080;-84
2023/05/22 05:23:04;;;;;;;6.80;5.40;;;15.00;46.30;;;;;;5006789;28;20132;-91
2023/05/22 05:25:31;;;;;;;8.63;6.03;;;15.00;46.30;;;;;;5001686;28;20504;-86
2023/05/22 05:27:57;;;;;;;5.97;4.55;;;15.10;46.30;;;;;;4999490;28;20666;-81
2023/05/22 05:30:29;;;;;;;7.03;6.28;;;15.20;46.40;;;;;;4992512;28;20037;-82
2023/05/22 05:33:24;;;;;;;6.55;5.60;;;15.30;46.50;;;;;;4997774;28;20045;-89
2023/05/22 05:36:16;;;;;;;6.93;5.70;;;15.40;46.50;;;;;;4983565;28;20513;-86
2023/05/22 05:38:44;;;;;;;6.78;4.75;;;15.50;46.50;;;;;;5000012;28;20038;-83
2023/05/22 05:41:11;;;;;;;5.50;5.00;;;15.60;46.60;;;;;;4985488;28;20046;-83
2023/05/22 05:43:37;;;;;;;6.07;5.53;;;15.80;47.40;;;;;;4993603;28;20513;-85
2023/05/22 05:46:07;;;;;;;6.45;5.05;;;15.90;46.90;;;;;;4997492;28;20045;-84
2023/05/22 05:48:34;;;;;;;5.30;4.80;;;16.10;47.10;;;;;;4996994;28;20060;-85
2023/05/22 05:51:04;;;;;;;11.05;5.13;;;16.30;47.30;;;;;;4995699;28;20576;-77
2023/05/22 05:53:35;;;;;;;6.07;5.17;;;16.40;47.20;;;;;;4994276;28;20042;-84
2023/05/22 05:56:05;;;;;;;15.38;6.47;;;16.60;47.50;;;;;;4990367;28;20030;-79
2023/05/22 05:58:38;;;;;;;9.13;5.13;;;16.70;47.70;;;;;;4993296;28;20030;-81
2023/05/22 06:01:33;;;;;;;8.95;6.45;;;16.90;48.10;;;;;;4999202;28;20041;-86
2023/05/22 06:04:02;;;;;;;7.00;5.15;;;17.20;48.60;;;;;;4998395;28;20044;-86
2023/05/22 06:06:38;;;;;;;7.07;5.75;;;17.40;48.80;;;;;;4998610;28;20069;-84
2023/05/22 06:09:10;;;;;;;7.20;5.88;;;17.70;48.90;;;;;;4989435;28;20022;-84
2023/05/22 06:11:55;;;;;;;8.18;6.80;;;18.00;49.20;;;;;;4991592;28;20416;-85
2023/05/22 06:14:25;;;;;;;9.02;6.53;;;18.40;49.90;;;;;;4994609;28;20033;-84
2023/05/22 06:16:55;;;;;;;8.80;7.72;;;18.70;50.60;;;;;;4992699;28;20073;-83
2023/05/22 06:19:26;;;;;;;7.95;6.07;;;19.10;51.30;;;;;;4995132;28;20440;-84
2023/05/22 06:21:53;;;;;;;6.88;5.75;;;19.60;51.80;;;;;;4994989;28;20181;-85
2023/05/22 06:24:20;;;;;;;6.30;5.63;;;20.20;52.30;;;;;;4999347;28;20046;-84
2023/05/22 06:26:46;;;;;;;7.03;6.13;;;20.70;52.30;;;;;;5002595;28;20715;-86
2023/05/22 06:29:14;;;;;;;6.22;4.75;;;21.20;52.20;;;;;;5008262;28;20324;-89
2023/05/22 06:31:43;;;;;;;6.80;5.05;;;21.70;52.10;;;;;;5003763;28;20038;-87
2023/05/22 06:34:10;;;;;;;5.93;5.32;;;22.20;52.00;;;;;;5009770;28;20076;-84
2023/05/22 06:36:39;;;;;;;5.30;4.78;;;22.70;51.80;;;;;;4994743;28;20048;-90
2023/05/22 06:39:06;;;;;;;6.78;4.90;;;23.20;51.60;;;;;;5006303;28;20370;-88
2023/05/22 06:41:51;;;;;;;5.82;5.30;;;23.60;51.20;;;;;;4991492;28;20607;-85
2023/05/22 06:44:17;;;;;;;4.70;4.20;;;24.10;50.90;;;;;;4994315;28;20040;-87
2023/05/22 06:46:43;;;;;;;6.32;4.65;;;24.50;51.20;;;;;;4987450;28;20054;-86
2023/05/22 06:49:17;;;;;;;4.95;4.45;;;25.00;50.50;;;;;;5002084;28;20041;-86
2023/05/22 06:51:46;;;;;;;4.15;3.75;;;25.30;49.70;;;;;;4989606;28;20073;-87
2023/05/22 06:54:18;;;;;;;6.18;4.05;;;25.70;49.00;;;;;;4983889;28;20095;-84
2023/05/22 06:56:46;;;;;;;4.53;4.13;;;26.10;48.30;;;;;;5016341;28;20030;-86
2023/05/22 06:59:19;;;;;;;4.70;4.30;;;26.40;47.70;;;;;;5003675;28;20044;-83
2023/05/22 07:01:45;;;;;;;5.40;4.68;;;26.80;47.10;;;;;;4998669;28;20057;-86
2023/05/22 07:04:18;;;;;;;5.40;4.22;;;27.10;46.50;;;;;;5009269;28;20436;-84
2023/05/22 07:07:10;;;;;;;4.40;3.97;;;27.40;45.90;;;;;;5001077;28;20052;-85
2023/05/22 07:09:37;;;;;;;5.35;3.38;;;27.80;45.40;;;;;;5000895;28;20776;-87
2023/05/22 07:12:07;;;;;;;4.35;3.95;;;28.20;44.80;;;;;;5000515;28;20188;-86
2023/05/22 07:14:33;;;;;;;3.90;3.50;;;28.50;43.90;;;;;;4995614;28;20501;-85
2023/05/22 07:16:59;;;;;;;5.88;3.63;;;28.90;43.40;;;;;;4998793;28;20056;-85
2023/05/22 07:19:31;;;;;;;4.27;3.87;;;29.10;42.80;;;;;;4982945;28;20124;-84
2023/05/22 07:22:05;;;;;;;4.43;3.55;;;29.30;42.40;;;;;;4988153;28;20381;-85
2023/05/22 07:24:34;;;;;;;4.03;3.22;;;29.50;42.10;;;;;;5010324;28;20136;-86
2023/05/22 07:27:00;;;;;;;4.93;3.35;;;29.60;41.70;;;;;;4996778;28;20096;-87
2023/05/22 07:29:26;;;;;;;4.30;3.17;;;29.60;41.60;;;;;;4977574;28;20032;-87
2023/05/22 07:31:57;;;;;;;6.53;3.78;;;29.50;41.60;;;;;;4993711;28;20041;-86
2023/05/22 07:34:31;;;;;;;4.15;3.75;;;29.40;41.50;;;;;;5000398;28;20038;-86
2023/05/22 07:36:59;;;;;;;4.40;3.47;;;29.30;41.50;;;;;;4998083;28;20037;-87
2023/05/22 07:39:25;;;;;;;4.22;3.45;;;29.30;41.40;;;;;;5002810;28;20072;-85
2023/05/22 07:41:53;;;;;;;3.83;3.35;;;29.50;41.00;;;;;;4986273;28;20044;-86
2023/05/22 07:44:20;;;;;;;4.05;3.38;;;29.80;40.40;;;;;;4980587;28;20044;-87
2023/05/22 07:46:46;;;;;;;5.82;3.72;;;30.00;39.90;;;;;;4975089;28;20137;-86
2023/05/22 07:49:20;;;;;;;4.13;3.58;;;30.30;39.40;;;;;;4991032;28;20038;-85
2023/05/22 07:51:48;;;;;;;6.05;3.70;;;30.30;39.10;;;;;;5000056;28;20037;-86
2023/05/22 07:54:17;;;;;;;4.53;3.35;;;30.30;39.00;;;;;;4999010;28;20037;-86
2023/05/22 07:56:46;;;;;;;4.00;3.42;;;30.10;39.10;;;;;;4999717;28;20038;-85
2023/05/22 07:59:15;;;;;;;6.32;3.33;;;30.10;39.20;;;;;;5004898;28;20038;-86
2023/05/22 08:01:41;;;;;;;3.97;3.53;;;30.00;39.20;;;;;;4986692;28;20131;-83
2023/05/22 08:04:07;;;;;;;8.10;4.05;;;29.80;39.10;;;;;;5003859;28;20200;-79
2023/05/22 08:06:37;;;;;;;7.32;3.30;;;29.50;39.10;;;;;;4992908;28;20031;-79
2023/05/22 08:09:05;;;;;;;5.55;3.58;;;29.20;39.20;;;;;;5007217;28;20441;-79
2023/05/22 08:11:51;;;;;;;5.72;3.67;;;28.90;39.50;;;;;;5000512;28;20523;-78
2023/05/22 08:14:21;;;;;;;4.88;3.30;;;28.70;39.90;;;;;;4998624;28;20340;-77
2023/05/22 08:16:47;;;;;;;3.45;2.97;;;28.50;39.90;;;;;;5002747;28;20192;-78
2023/05/22 08:19:13;;;;;;;6.05;3.50;;;28.50;40.00;;;;;;4997095;28;20088;-81
2023/05/22 08:21:39;;;;;;;4.20;3.08;;;28.30;39.90;;;;;;4989496;28;20037;-80
2023/05/22 08:24:12;;;;;;;5.68;3.53;;;28.30;39.90;;;;;;4996152;28;20124;-81
2023/05/22 08:26:42;;;;;;;4.70;3.47;;;28.10;39.80;;;;;;5002541;28;20063;-78
2023/05/22 08:29:11;;;;;;;5.45;3.17;;;28.00;39.90;;;;;;4988858;28;20062;-79
2023/05/22 08:31:40;;;;;;;4.97;3.22;;;27.90;40.00;;;;;;4994429;28;20077;-80
2023/05/22 08:34:09;;;;;;;3.28;2.97;;;27.80;40.20;;;;;;4985613;28;20037;-78
2023/05/22 08:36:36;;;;;;;4.55;3.10;;;27.80;40.90;;;;;;4998318;28;20128;-80
2023/05/22 08:39:25;;;;;;;3.90;2.70;;;27.80;40.40;;;;;;4989701;28;20065;-78
2023/05/22 08:41:51;;;;;;;6.22;3.22;;;27.80;40.50;;;;;;4996344;28;20052;-79
2023/05/22 08:44:24;;;;;;;4.50;3.35;;;27.90;40.40;;;;;;4980987;28;20041;-79
2023/05/22 08:46:51;;;;;;;3.70;3.03;;;27.90;40.40;;;;;;4995012;28;20057;-77
2023/05/22 08:49:20;;;;;;;3.35;2.83;;;27.90;40.30;;;;;;4995907;28;20049;-80
2023/05/22 08:51:51;;;;;;;3.72;2.97;;;28.00;40.40;;;;;;4991175;28;20396;-78
2023/05/22 08:54:21;;;;;;;3.70;2.85;;;28.00;40.40;;;;;;4991628;28;20501;-78
2023/05/22 08:56:48;;;;;;;3.47;2.72;;;28.00;40.30;;;;;;4992638;28;20125;-78
2023/05/22 08:59:15;;;;;;;3.00;2.70;;;28.10;40.30;;;;;;4994222;28;20548;-78
2023/05/22 09:01:42;;;;;;;3.47;2.95;;;28.10;40.30;;;;;;4975057;28;20078;-81
2023/05/22 09:04:09;;;;;;;3.15;2.75;;;28.20;40.30;;;;;;4996733;28;20453;-81
2023/05/22 09:06:40;;;;;;;3.50;2.90;;;28.20;40.20;;;;;;4996890;28;20542;-79
2023/05/22 09:09:16;;;;;;;4.00;2.78;;;28.20;40.10;;;;;;5000800;28;20033;-81
2023/05/22 09:11:42;;;;;;;6.95;3.47;;;28.20;40.10;;;;;;4995825;28;20091;-80
2023/05/22 09:14:10;;;;;;;4.47;3.20;;;28.30;40.20;;;;;;4993570;28;20066;-79
2023/05/22 09:16:51;;;;;;;4.43;3.15;;;28.30;40.10;;;;;;4997614;28;20026;-79
2023/05/22 09:19:23;;;;;;;2.92;2.70;;;28.30;40.20;;;;;;4994001;28;20116;-80
2023/05/22 09:21:50;;;;;;;3.55;2.80;;;28.40;40.20;;;;;;4991080;28;20500;-80
2023/05/22 09:24:16;;;;;;;3.97;3.00;;;28.40;40.20;;;;;;4998121;28;20049;-80
2023/05/22 09:26:42;;;;;;;2.38;2.17;;;28.40;40.00;;;;;;5003217;28;20133;-78
2023/05/22 09:29:10;;;;;;;4.47;2.88;;;28.50;40.10;;;;;;4990665;28;20560;-81
2023/05/22 09:31:41;;;;;;;3.05;2.60;;;28.50;40.10;;;;;;4993008;28;20595;-80
2023/05/22 09:34:12;;;;;;;3.33;3.03;;;28.60;40.00;;;;;;4996063;28;20042;-81
2023/05/22 09:36:42;;;;;;;3.45;3.05;;;28.60;40.00;;;;;;4989788;28;20524;-81
2023/05/22 09:39:09;;;;;;;3.17;2.88;;;28.60;40.00;;;;;;4992401;28;20046;-81
2023/05/22 09:41:39;;;;;;;3.47;2.58;;;28.70;40.00;;;;;;4989778;28;20485;-79
2023/05/22 09:44:12;;;;;;;3.80;2.90;;;28.70;40.00;;;;;;4993661;28;20100;-82
2023/05/22 09:46:44;;;;;;;2.58;2.38;;;28.70;39.90;;;;;;4999715;28;20058;-81
2023/05/22 09:49:11;;;;;;;3.97;2.60;;;28.70;39.80;;;;;;4993140;28;20512;-81
2023/05/22 09:51:40;;;;;;;3.58;2.72;;;28.80;39.90;;;;;;4998351;28;20538;-82
2023/05/22 09:54:08;;;;;;;2.83;2.63;;;28.80;39.70;;;;;;4991581;28;20932;-79
2023/05/22 09:56:37;;;;;;;3.08;2.50;;;28.90;39.80;;;;;;5001796;28;20030;-80
2023/05/22 09:59:08;;;;;;;3.60;2.80;;;28.90;39.70;;;;;;4995266;28;20030;-80
2023/05/22 10:01:38;;;;;;;3.13;2.47;;;28.90;39.60;;;;;;4995818;28;20049;-79
2023/05/22 10:04:15;;;;;;;3.75;2.40;;;28.90;39.60;;;;;;4995993;28;20032;-78
2023/05/22 10:06:49;;;;;;;2.97;2.72;;;29.00;39.60;;;;;;5000623;28;20034;-80
2023/05/22 10:09:17;;;;;;;2.90;2.08;;;29.00;39.50;;;;;;5001389;28;20041;-80
2023/05/22 10:11:44;;;;;;;3.22;2.42;;;29.00;39.50;;;;;;5004644;28;20472;-81
2023/05/22 10:14:14;;;;;;;3.20;2.85;;;29.10;39.50;;;;;;4986980;28;20117;-80
2023/05/22 10:16:44;;;;;;;3.83;2.40;;;29.20;39.40;;;;;;4988698;28;20042;-81
2023/05/22 10:19:13;;;;;;;2.65;2.45;;;29.20;39.40;;;;;;4992297;28;20092;-80
2023/05/22 10:21:40;;;;;;;2.55;2.30;;;29.20;39.20;;;;;;4994320;28;20033;-80
2023/05/22 10:24:07;;;;;;;2.85;2.65;;;29.30;39.20;;;;;;4997590;28;20330;-82
2023/05/22 10:26:39;;;;;;;;;;;29.30;39.20;;;;;;4993079;28;20667;-79
2023/05/22 10:29:16;;;;;;;3.67;2.78;;;29.40;39.20;;;;;;4988817;28;19983;-89
2023/05/22 10:31:53;;;;;;;3.33;2.13;;;29.40;39.20;;;;;;4999356;28;20087;-86
2023/05/22 10:34:33;;;;;;;3.45;3.15;;;29.50;39.10;;;;;;5018016;28;20034;-84
2023/05/22 10:37:16;;;;;;;2.55;2.35;;;29.70;38.90;;;;;;4998199;28;20025;-87
2023/05/22 10:39:47;;;;;;;2.35;2.15;;;29.80;38.60;;;;;;4998497;28;20311;-87
2023/05/22 10:42:14;;;;;;;3.28;2.45;;;29.90;38.40;;;;;;5002861;28;20480;-92
2023/05/22 10:44:45;;;;;;;3.33;3.03;;;30.10;38.40;;;;;;5002146;28;20678;-92
2023/05/22 10:47:13;;;;;;;2.47;2.28;;;30.10;38.10;;;;;;4991418;28;20081;-88
2023/05/22 10:49:48;;;;;;;3.15;2.30;;;30.30;38.70;;;;;;5004421;28;20084;-88
2023/05/22 10:52:17;;;;;;;3.80;2.72;;;30.40;37.90;;;;;;5005846;28;20044;-87
2023/05/22 10:54:44;;;;;;;2.67;2.45;;;30.50;37.70;;;;;;5004139;28;20115;-88
2023/05/22 10:57:17;;;;;;;2.78;2.28;;;30.70;37.60;;;;;;5002698;28;20082;-86
2023/05/22 10:59:46;;;;;;;3.08;2.35;;;30.70;37.40;;;;;;4998912;28;20033;-89
2023/05/22 11:02:29;;;;;;;3.03;2.72;;;30.90;37.40;;;;;;4998642;28;20045;-89
2023/05/22 11:05:17;;;;;;;2.83;2.55;;;31.00;37.30;;;;;;5004335;28;20088;-82
2023/05/22 11:07:43;;;;;;;3.00;2.78;;;31.20;37.20;;;;;;5003026;28;20651;-82
2023/05/22 11:10:10;;;;;;;2.60;2.40;;;31.30;37.20;;;;;;5003233;28;20037;-81
2023/05/22 11:12:44;;;;;;;2.75;2.53;;;31.40;37.00;;;;;;4997120;28;20111;-83
2023/05/22 11:15:11;;;;;;;2.55;2.30;;;31.50;37.00;;;;;;5008833;28;20538;-82
2023/05/22 11:17:45;;;;;;;3.60;2.67;;;31.60;36.80;;;;;;4997499;28;20048;-82
2023/05/22 11:20:21;;;;;;;2.72;2.53;;;31.70;36.70;;;;;;4997925;28;20440;-83
2023/05/22 11:22:59;;;;;;;3.05;2.75;;;31.80;36.40;;;;;;5009200;28;20086;-81
2023/05/22 11:25:26;;;;;;;2.78;2.58;;;31.90;36.50;;;;;;4999968;28;20125;-82
2023/05/22 11:27:53;;;;;;;2.67;2.47;;;32.00;36.50;;;;;;4997681;28;20042;-84
2023/05/22 11:30:25;;;;;;;3.40;2.50;;;32.00;36.40;;;;;;4999718;28;20682;-85
2023/05/22 11:32:52;;;;;;;2.88;2.58;;;32.10;36.20;;;;;;5003735;28;20045;-84
2023/05/22 11:35:21;;;;;;;4.15;2.65;;;32.20;36.20;;;;;;5002250;28;20116;-86
2023/05/22 11:37:49;;;;;;;3.85;2.30;;;32.30;36.10;;;;;;4999263;28;20199;-85
2023/05/22 11:40:17;;;;;;;3.33;2.70;;;32.30;36.10;;;;;;5002981;28;20038;-87
2023/05/22 11:42:46;;;;;;;3.00;2.55;;;32.40;36.20;;;;;;4998885;28;20074;-85
2023/05/22 11:45:14;;;;;;;2.67;2.42;;;32.50;36.20;;;;;;4999963;28;20038;-80
2023/05/22 11:47:40;;;;;;;3.35;2.47;;;32.50;36.10;;;;;;5008764;28;20068;-80
2023/05/22 11:50:11;;;;;;;3.10;2.80;;;32.60;36.10;;;;;;4996495;28;20116;-83
2023/05/22 11:52:41;;;;;;;3.03;2.28;;;32.60;35.90;;;;;;5006780;28;20041;-82
2023/05/22 11:55:08;;;;;;;2.35;2.15;;;32.80;35.90;;;;;;4999456;28;20429;-83
2023/05/22 11:57:35;;;;;;;4.07;2.33;;;32.80;35.70;;;;;;4999455;28;20322;-83
2023/05/22 12:00:07;;;;;;;2.97;2.78;;;32.90;35.80;;;;;;5005423;28;20400;-83
2023/05/22 12:02:45;;;;;;;4.43;2.58;;;33.00;35.70;;;;;;4996832;28;20044;-83
2023/05/22 12:05:15;;;;;;;2.80;2.33;;;33.10;35.60;;;;;;5006044;28;20260;-84
2023/05/22 12:07:42;;;;;;;2.78;2.45;;;33.20;35.70;;;;;;4997567;28;20034;-83
2023/05/22 12:10:09;;;;;;;2.92;2.60;;;33.20;35.50;;;;;;4997245;28;20045;-84
2023/05/22 12:12:36;;;;;;;3.78;2.40;;;33.30;35.40;;;;;;4993899;28;20030;-86
2023/05/22 12:15:06;;;;;;;2.60;2.40;;;33.30;35.30;;;;;;5007542;28;20499;-86
2023/05/22 12:17:35;;;;;;;2.58;2.38;;;33.40;35.30;;;;;;4988778;28;20488;-83
2023/05/22 12:20:03;;;;;;;2.60;2.28;;;33.50;35.30;;;;;;4996780;28;20045;-84
2023/05/22 12:22:29;;;;;;;2.72;2.53;;;33.60;35.20;;;;;;4991372;28;20088;-85
2023/05/22 12:24:58;;;;;;;6.25;2.53;;;33.70;35.10;;;;;;4999004;28;20460;-86
2023/05/22 12:27:30;;;;;;;2.40;2.20;;;33.70;35.10;;;;;;4992069;28;20026;-86
2023/05/22 12:29:57;;;;;;;2.47;2.28;;;33.80;34.90;;;;;;5000591;28;20025;-87
2023/05/22 12:32:28;;;;;;;3.08;2.30;;;33.90;34.90;;;;;;4997706;28;20084;-84
2023/05/22 12:34:58;;;;;;;3.28;2.33;;;34.00;34.80;;;;;;5006143;28;20076;-85
2023/05/22 12:37:27;;;;;;;2.70;2.50;;;34.00;34.60;;;;;;4999604;28;20124;-85
2023/05/22 12:40:02;;;;;;;4.43;2.72;;;34.10;34.60;;;;;;5013367;28;20042;-86
2023/05/22 12:42:28;;;;;;;3.25;2.15;;;34.20;34.50;;;;;;4989619;28;20181;-85
2023/05/22 12:44:56;;;;;;;2.90;2.60;;;34.30;34.50;;;;;;4983253;28;20030;-84
2023/05/22 12:47:23;;;;;;;2.63;2.42;;;34.40;34.40;;;;;;4991244;28;20065;-83
2023/05/22 12:49:57;;;;;;;2.13;2.00;;;34.50;34.40;;;;;;4993431;28;20044;-84
2023/05/22 12:52:23;;;;;;;2.30;2.05;;;34.60;34.30;;;;;;4988977;28;20038;-85
2023/05/22 12:54:49;;;;;;;2.60;2.40;;;34.70;34.20;;;;;;4987656;28;20296;-84
2023/05/22 12:57:15;;;;;;;2.92;2.13;;;34.80;34.80;;;;;;4993807;28;20088;-85
2023/05/22 12:59:44;;;;;;;3.65;2.28;;;34.90;34.10;;;;;;4991968;28;20068;-85
2023/05/22 13:02:10;;;;;;;3.72;2.35;;;35.00;34.00;;;;;;4990148;28;20069;-85